Time;durP1;ratioP1;P1;durP2;ratioP2;P2;SDS_P1;SDS_P2;PMS_P1;PMS_P2;Temp;Humidity;BMP_temperature;BMP_pressure;BME280_temperature;BME280_humidity;BME280_pressure;Samples;Min_cycle;Max_cycle;Signal;HPM_P1;HPM_P2
2021/08/21 00:01:12;;;;;;;9.20;6.20;;;12.00;99.90;;;;;;5050794;28;20037;-39
2021/08/21 00:03:38;;;;;;;6.57;5.63;;;12.00;99.90;;;;;;5050626;28;20057;-42
2021/08/21 00:06:03;;;;;;;6.88;5.57;;;12.00;99.90;;;;;;5050650;28;20404;-41
2021/08/21 00:08:30;;;;;;;6.53;5.75;;;12.00;99.90;;;;;;5050984;28;20048;-42
2021/08/21 00:10:56;;;;;;;6.68;5.20;;;12.10;99.90;;;;;;5049995;28;20064;-41
2021/08/21 00:13:22;;;;;;;7.20;5.80;;;12.10;99.90;;;;;;5050543;28;20053;-42
2021/08/21 00:15:47;;;;;;;4.70;4.15;;;12.20;99.90;;;;;;5050826;28;20028;-45
2021/08/21 00:18:13;;;;;;;8.55;5.32;;;12.20;99.90;;;;;;5050572;28;20036;-46
2021/08/21 00:20:38;;;;;;;6.60;5.35;;;12.30;99.90;;;;;;5050771;28;20025;-40
2021/08/21 00:23:04;;;;;;;8.43;5.70;;;12.30;99.90;;;;;;5050479;28;20044;-42
2021/08/21 00:25:30;;;;;;;6.63;5.88;;;12.30;99.90;;;;;;5049734;28;20298;-41
2021/08/21 00:27:55;;;;;;;8.43;6.43;;;12.30;99.90;;;;;;5050759;28;20032;-42
2021/08/21 00:30:21;;;;;;;6.78;5.45;;;12.30;99.90;;;;;;5050510;28;20021;-44
2021/08/21 00:32:46;;;;;;;8.98;5.63;;;12.40;99.90;;;;;;5050470;28;20028;-43
2021/08/21 00:35:12;;;;;;;5.97;5.25;;;12.40;99.90;;;;;;5047067;28;20454;-43
2021/08/21 00:37:38;;;;;;;6.22;5.38;;;12.40;99.90;;;;;;5049381;28;20033;-40
2021/08/21 00:40:06;;;;;;;6.22;5.47;;;12.30;99.90;;;;;;5048308;28;20025;-50
2021/08/21 00:42:32;;;;;;;7.45;5.60;;;12.30;99.90;;;;;;5049323;28;20532;-42
2021/08/21 00:44:57;;;;;;;10.27;6.22;;;12.20;99.90;;;;;;5049202;28;20043;-47
2021/08/21 00:47:23;;;;;;;6.22;4.38;;;12.30;99.90;;;;;;5048877;28;20021;-42
2021/08/21 00:49:51;;;;;;;7.22;5.53;;;12.30;99.90;;;;;;5049344;28;20022;-40
2021/08/21 00:52:25;;;;;;;6.35;5.22;;;12.30;99.90;;;;;;5052816;28;20017;-43
2021/08/21 00:54:52;;;;;;;7.72;6.18;;;12.40;99.90;;;;;;5052259;28;20036;-40
2021/08/21 00:57:19;;;;;;;6.10;4.95;;;12.50;99.90;;;;;;5054163;28;20029;-41
2021/08/21 00:59:47;;;;;;;7.75;5.95;;;12.50;99.90;;;;;;5054491;28;20421;-43
2021/08/21 01:02:14;;;;;;;5.38;4.32;;;12.60;99.90;;;;;;5054019;28;20061;-43
2021/08/21 01:04:42;;;;;;;7.20;6.07;;;12.60;99.90;;;;;;5054672;28;20068;-41
2021/08/21 01:07:29;;;;;;;7.57;5.18;;;12.70;99.90;;;;;;5055519;28;20475;-40
2021/08/21 01:09:55;;;;;;;6.13;5.03;;;12.70;99.90;;;;;;5054672;28;20025;-42
2021/08/21 01:12:21;;;;;;;5.63;4.82;;;12.80;99.90;;;;;;5055396;28;20025;-44
2021/08/21 01:14:50;;;;;;;7.30;6.03;;;12.80;99.90;;;;;;5055480;28;20053;-42
2021/08/21 01:17:17;;;;;;;6.95;5.22;;;12.70;99.90;;;;;;5055416;28;20392;-42
2021/08/21 01:19:45;;;;;;;7.32;6.10;;;12.70;99.90;;;;;;5055269;28;20033;-42
2021/08/21 01:22:13;;;;;;;10.27;6.75;;;12.70;99.90;;;;;;5055281;28;20223;-40
2021/08/21 01:24:40;;;;;;;7.40;5.43;;;12.60;99.90;;;;;;5054294;28;20082;-42
2021/08/21 01:27:06;;;;;;;9.35;6.68;;;12.60;99.90;;;;;;5055049;28;20027;-42
2021/08/21 01:29:32;;;;;;;6.10;5.22;;;12.50;99.90;;;;;;5055276;28;20021;-42
2021/08/21 01:31:58;;;;;;;6.90;5.45;;;12.40;99.90;;;;;;5055163;28;20043;-40
2021/08/21 01:34:23;;;;;;;7.63;5.75;;;12.40;99.90;;;;;;5055070;28;20064;-42
2021/08/21 01:36:50;;;;;;;8.05;5.75;;;12.40;99.90;;;;;;5055119;28;20033;-42
2021/08/21 01:39:17;;;;;;;6.30;5.13;;;12.40;99.90;;;;;;5054021;28;20361;-41
2021/08/21 01:41:43;;;;;;;6.75;5.43;;;12.40;99.90;;;;;;5054842;28;20040;-45
2021/08/21 01:44:10;;;;;;;6.03;5.43;;;12.40;99.90;;;;;;5054819;28;20465;-43
2021/08/21 01:46:36;;;;;;;6.60;5.32;;;12.40;99.90;;;;;;5054822;28;20025;-40
2021/08/21 01:49:03;;;;;;;6.60;5.47;;;12.40;99.90;;;;;;5054834;28;20028;-43
2021/08/21 01:51:32;;;;;;;7.10;4.93;;;12.40;99.90;;;;;;5054761;28;20029;-40
2021/08/21 01:53:58;;;;;;;5.55;4.60;;;12.50;99.90;;;;;;5053869;28;20435;-40
2021/08/21 01:56:27;;;;;;;5.97;4.97;;;12.50;99.90;;;;;;5054520;28;20487;-43
2021/08/21 01:58:52;;;;;;;6.15;5.35;;;12.50;99.90;;;;;;5053419;28;20032;-40
2021/08/21 02:01:18;;;;;;;5.43;4.88;;;12.60;99.90;;;;;;5054421;28;20028;-42
2021/08/21 02:03:46;;;;;;;5.93;5.03;;;12.60;99.90;;;;;;5054403;28;20515;-45
2021/08/21 02:06:12;;;;;;;6.53;5.30;;;12.60;99.90;;;;;;5054507;28;20063;-40
2021/08/21 02:08:39;;;;;;;6.15;4.72;;;12.70;99.90;;;;;;5053957;28;20075;-42
2021/08/21 02:11:05;;;;;;;8.05;5.97;;;12.70;99.90;;;;;;5054064;28;20497;-40
2021/08/21 02:13:30;;;;;;;5.75;5.10;;;12.80;99.90;;;;;;5054305;28;20116;-40
2021/08/21 02:15:56;;;;;;;7.97;5.50;;;12.80;99.90;;;;;;5054304;28;20029;-40
2021/08/21 02:18:21;;;;;;;7.07;5.43;;;12.90;99.90;;;;;;5054165;28;20055;-40
2021/08/21 02:20:47;;;;;;;6.30;5.07;;;13.00;99.90;;;;;;5054237;28;20076;-40
2021/08/21 02:23:12;;;;;;;6.88;5.88;;;12.90;99.90;;;;;;5052835;28;20040;-43
2021/08/21 02:25:38;;;;;;;7.30;5.50;;;12.90;99.90;;;;;;5053122;28;20074;-40
2021/08/21 02:28:09;;;;;;;6.95;5.35;;;12.90;99.90;;;;;;5054150;28;20176;-41
2021/08/21 02:30:40;;;;;;;9.15;6.15;;;12.90;99.90;;;;;;5054046;28;20374;-40
2021/08/21 02:33:06;;;;;;;8.77;5.40;;;12.80;99.90;;;;;;5054011;28;20025;-45
2021/08/21 02:35:33;;;;;;;5.13;4.63;;;12.70;99.90;;;;;;5053932;28;20403;-42
2021/08/21 02:37:59;;;;;;;6.35;5.57;;;12.60;99.90;;;;;;5053844;28;20500;-42
2021/08/21 02:40:24;;;;;;;6.78;4.80;;;12.60;99.90;;;;;;5052830;28;20435;-41
2021/08/21 02:42:50;;;;;;;6.88;5.43;;;12.50;99.90;;;;;;5053834;28;20029;-40
2021/08/21 02:45:16;;;;;;;6.82;5.28;;;12.40;99.90;;;;;;5053640;28;20476;-40
2021/08/21 02:47:42;;;;;;;5.43;4.57;;;12.40;99.90;;;;;;5053777;28;20484;-40
2021/08/21 02:50:08;;;;;;;6.28;5.47;;;12.30;99.90;;;;;;5053746;28;20033;-40
2021/08/21 02:52:33;;;;;;;8.93;5.10;;;12.30;99.90;;;;;;5053435;28;20021;-42
2021/08/21 02:54:59;;;;;;;8.07;6.53;;;12.30;99.90;;;;;;5052621;28;20495;-42
2021/08/21 02:57:24;;;;;;;6.70;5.35;;;12.20;99.90;;;;;;5053444;28;20025;-40
2021/08/21 02:59:50;;;;;;;7.72;5.50;;;12.10;99.90;;;;;;5053590;28;20100;-40
2021/08/21 03:02:15;;;;;;;6.18;5.25;;;12.10;99.90;;;;;;5053457;28;20025;-40
2021/08/21 03:04:41;;;;;;;10.07;7.30;;;12.00;99.90;;;;;;5053148;28;20081;-40
2021/08/21 03:07:06;;;;;;;6.50;5.43;;;12.00;99.90;;;;;;5053272;28;20035;-41
2021/08/21 03:09:32;;;;;;;7.60;5.82;;;11.90;99.90;;;;;;5052269;28;20029;-41
2021/08/21 03:11:57;;;;;;;6.18;5.38;;;11.80;99.90;;;;;;5053239;28;20018;-42
2021/08/21 03:14:23;;;;;;;9.65;6.05;;;11.70;99.90;;;;;;5052613;28;20033;-41
2021/08/21 03:16:48;;;;;;;8.07;6.22;;;11.70;99.90;;;;;;5053090;28;20074;-44
2021/08/21 03:19:13;;;;;;;7.38;5.95;;;11.70;99.90;;;;;;5053123;28;20024;-42
2021/08/21 03:21:39;;;;;;;7.78;5.70;;;11.60;99.90;;;;;;5051787;28;20036;-40
2021/08/21 03:24:08;;;;;;;8.43;6.20;;;11.60;99.90;;;;;;5052012;28;20033;-40
2021/08/21 03:26:33;;;;;;;7.22;5.57;;;11.50;99.90;;;;;;5052953;28;20036;-42
2021/08/21 03:28:59;;;;;;;6.85;5.93;;;11.40;99.90;;;;;;5052975;28;20017;-40
2021/08/21 03:31:24;;;;;;;10.10;6.78;;;11.40;99.90;;;;;;5052924;28;20039;-42
2021/08/21 03:33:50;;;;;;;9.82;7.63;;;11.40;99.90;;;;;;5052952;28;20396;-44
2021/08/21 03:36:15;;;;;;;8.32;6.65;;;11.40;99.90;;;;;;5052754;28;20078;-39
2021/08/21 03:38:41;;;;;;;9.60;6.85;;;11.40;99.90;;;;;;5051799;28;20063;-39
2021/08/21 03:41:06;;;;;;;7.90;5.75;;;11.40;99.90;;;;;;5052793;28;20032;-42
2021/08/21 03:43:32;;;;;;;10.70;7.63;;;11.30;99.90;;;;;;5052632;28;20025;-40
2021/08/21 03:45:57;;;;;;;9.60;7.43;;;11.40;99.90;;;;;;5052784;28;20049;-40
2021/08/21 03:48:23;;;;;;;8.25;6.13;;;11.30;99.90;;;;;;5052592;28;20127;-40
2021/08/21 03:50:49;;;;;;;9.30;5.97;;;11.30;99.90;;;;;;5052663;28;20025;-42
2021/08/21 03:53:14;;;;;;;11.70;8.00;;;11.20;99.90;;;;;;5052510;28;20361;-42
2021/08/21 03:55:40;;;;;;;8.82;6.43;;;11.20;99.90;;;;;;5051663;28;20063;-45
2021/08/21 03:58:05;;;;;;;7.72;6.35;;;11.20;99.90;;;;;;5052602;28;20025;-42
2021/08/21 04:00:31;;;;;;;7.90;6.13;;;11.10;99.90;;;;;;5052565;28;20021;-40
2021/08/21 04:02:56;;;;;;;9.23;6.03;;;11.00;99.90;;;;;;5052378;28;20488;-42
2021/08/21 04:05:24;;;;;;;7.22;5.43;;;11.00;99.90;;;;;;5052369;28;20025;-43
2021/08/21 04:07:50;;;;;;;10.80;7.03;;;11.10;99.90;;;;;;5052382;28;20123;-40
2021/08/21 04:10:16;;;;;;;5.90;4.85;;;11.10;99.90;;;;;;5051593;28;20437;-39
2021/08/21 04:12:41;;;;;;;9.13;6.57;;;11.00;99.90;;;;;;5052391;28;20100;-40
2021/08/21 04:15:07;;;;;;;6.82;5.80;;;11.10;99.90;;;;;;5052373;28;20037;-41
2021/08/21 04:17:33;;;;;;;7.78;5.03;;;11.10;99.90;;;;;;5051073;28;20386;-42
2021/08/21 04:19:58;;;;;;;7.90;6.20;;;11.10;99.90;;;;;;5052442;28;20044;-40
2021/08/21 04:22:24;;;;;;;7.38;5.30;;;11.10;99.90;;;;;;5052209;28;20021;-41
2021/08/21 04:24:49;;;;;;;7.60;6.05;;;11.20;99.90;;;;;;5051307;28;20029;-40
2021/08/21 04:27:15;;;;;;;9.50;6.88;;;11.20;99.90;;;;;;5056410;28;20025;-40
2021/08/21 04:29:40;;;;;;;8.60;6.30;;;11.30;99.90;;;;;;5056330;28;20021;-39
2021/08/21 04:32:06;;;;;;;7.75;5.85;;;11.30;99.90;;;;;;5056348;28;20039;-42
2021/08/21 04:34:34;;;;;;;6.10;4.90;;;11.40;99.90;;;;;;5056155;28;20040;-43
2021/08/21 04:37:02;;;;;;;6.13;5.20;;;11.40;99.90;;;;;;5056181;28;20048;-40
2021/08/21 04:39:28;;;;;;;5.75;5.15;;;11.50;99.90;;;;;;5055129;28;20032;-40
2021/08/21 04:41:53;;;;;;;7.78;5.57;;;11.70;99.90;;;;;;5069823;28;20115;-42
2021/08/21 04:44:19;;;;;;;8.05;5.07;;;11.90;99.90;;;;;;5075862;28;20077;-41
2021/08/21 04:46:44;;;;;;;8.32;5.50;;;12.10;99.90;;;;;;5075775;28;20047;-41
2021/08/21 04:49:10;;;;;;;7.47;5.63;;;12.30;99.90;;;;;;5075798;28;20059;-40
2021/08/21 04:51:35;;;;;;;8.25;6.00;;;12.80;99.90;;;;;;5075476;28;20115;-40
2021/08/21 04:54:01;;;;;;;7.43;4.88;;;13.70;99.90;;;;;;5074689;28;20028;-42
2021/08/21 04:56:26;;;;;;;5.47;4.82;;;14.60;99.90;;;;;;5075594;28;20081;-41
2021/08/21 04:58:52;;;;;;;5.75;4.95;;;14.90;99.90;;;;;;5075578;28;20040;-40
2021/08/21 05:01:17;;;;;;;6.45;5.72;;;15.00;99.90;;;;;;5075667;28;20032;-42
2021/08/21 05:03:43;;;;;;;5.45;4.63;;;15.10;99.90;;;;;;5075104;28;20128;-41
2021/08/21 05:06:08;;;;;;;6.70;5.43;;;15.20;99.90;;;;;;5075261;28;20013;-43
2021/08/21 05:08:34;;;;;;;5.57;5.03;;;15.30;99.90;;;;;;5074830;28;20024;-42
2021/08/21 05:10:59;;;;;;;5.85;4.97;;;15.20;99.90;;;;;;5075139;28;20027;-43
2021/08/21 05:13:25;;;;;;;6.75;4.82;;;15.20;99.90;;;;;;5066935;28;20024;-40
2021/08/21 05:15:50;;;;;;;6.68;5.47;;;15.30;99.90;;;;;;5053764;28;20041;-42
2021/08/21 05:18:23;;;;;;;6.95;5.40;;;15.40;99.90;;;;;;5053904;28;20460;-40
2021/08/21 05:20:53;;;;;;;6.78;5.68;;;15.50;99.90;;;;;;5053497;28;20559;-42
2021/08/21 05:23:19;;;;;;;6.30;4.70;;;15.60;99.90;;;;;;5053937;28;20080;-41
2021/08/21 05:25:47;;;;;;;6.05;5.22;;;15.90;99.90;;;;;;5052699;28;20476;-42
2021/08/21 05:28:15;;;;;;;7.50;6.07;;;16.40;99.90;;;;;;5053714;28;20031;-40
2021/08/21 05:30:41;;;;;;;7.45;5.20;;;16.80;99.90;;;;;;5053744;28;20071;-42
2021/08/21 05:33:15;;;;;;;7.85;5.70;;;17.10;99.90;;;;;;5053780;28;20029;-43
2021/08/21 05:35:42;;;;;;;7.30;5.70;;;17.70;99.90;;;;;;5068710;28;20025;-40
2021/08/21 05:38:08;;;;;;;7.20;6.43;;;18.00;99.90;;;;;;5073427;28;20024;-42
2021/08/21 05:40:34;;;;;;;6.28;5.32;;;18.00;99.90;;;;;;5072672;28;20040;-43
2021/08/21 05:43:00;;;;;;;5.60;5.10;;;18.00;99.90;;;;;;5073358;28;20028;-41
2021/08/21 05:45:27;;;;;;;7.28;5.65;;;17.90;99.90;;;;;;5073388;28;20029;-42
2021/08/21 05:47:53;;;;;;;9.55;6.40;;;17.90;99.90;;;;;;5073180;28;20027;-43
2021/08/21 05:50:19;;;;;;;7.32;6.50;;;17.90;99.90;;;;;;5074238;28;20472;-42
2021/08/21 05:52:49;;;;;;;9.55;8.50;;;17.90;99.90;;;;;;5074581;28;20016;-42
2021/08/21 05:55:14;;;;;;;8.32;6.20;;;17.90;99.90;;;;;;5073699;28;20031;-41
2021/08/21 05:57:40;;;;;;;6.03;5.43;;;18.00;99.90;;;;;;5074659;28;20032;-45
2021/08/21 06:00:07;;;;;;;7.85;6.07;;;18.20;99.90;;;;;;5074654;28;20139;-41
2021/08/21 06:02:32;;;;;;;7.78;5.88;;;18.50;99.90;;;;;;5074301;28;20036;-41
2021/08/21 06:04:58;;;;;;;8.00;6.10;;;18.70;99.90;;;;;;5031784;28;20053;-42
2021/08/21 06:07:24;;;;;;;7.70;5.78;;;19.00;99.90;;;;;;5008721;28;20037;-42
2021/08/21 06:09:49;;;;;;;5.93;5.30;;;19.20;99.90;;;;;;5033621;28;20021;-43
2021/08/21 06:12:15;;;;;;;8.50;7.18;;;19.30;99.90;;;;;;5034192;28;20029;-42
2021/08/21 06:14:41;;;;;;;5.28;4.78;;;19.60;99.90;;;;;;5029484;28;20025;-42
2021/08/21 06:17:07;;;;;;;7.70;6.05;;;20.40;99.90;;;;;;5032498;28;20052;-43
2021/08/21 06:19:33;;;;;;;8.85;7.20;;;21.30;99.90;;;;;;5029683;28;20480;-42
2021/08/21 06:21:58;;;;;;;6.57;5.68;;;22.50;99.90;;;;;;5032790;28;20075;-41
2021/08/21 06:24:24;;;;;;;6.38;5.78;;;23.80;99.90;;;;;;5031798;28;20030;-41
2021/08/21 06:26:49;;;;;;;6.78;6.07;;;25.00;99.90;;;;;;5032509;28;20025;-41
2021/08/21 06:29:15;;;;;;;7.97;5.65;;;26.30;99.90;;;;;;5032687;28;20064;-44
2021/08/21 06:31:40;;;;;;;7.38;5.55;;;27.00;99.90;;;;;;5026419;28;20358;-43
2021/08/21 06:34:06;;;;;;;6.13;5.53;;;26.60;99.90;;;;;;5012688;28;20026;-41
2021/08/21 06:36:31;;;;;;;7.18;5.30;;;25.80;99.90;;;;;;5012516;28;20030;-41
2021/08/21 06:38:57;;;;;;;5.75;5.15;;;25.10;99.90;;;;;;5010474;28;20041;-42
2021/08/21 06:41:22;;;;;;;6.45;5.57;;;24.50;99.90;;;;;;5012509;28;20112;-43
2021/08/21 06:43:48;;;;;;;5.30;4.80;;;24.20;99.90;;;;;;5012360;28;20025;-43
2021/08/21 06:46:13;;;;;;;9.10;5.82;;;24.80;99.90;;;;;;5012622;28;20465;-43
2021/08/21 06:48:39;;;;;;;5.70;5.10;;;25.00;99.90;;;;;;5011673;28;20519;-41
2021/08/21 06:51:04;;;;;;;5.65;5.07;;;25.10;99.90;;;;;;5012649;28;20035;-43
2021/08/21 06:53:30;;;;;;;6.38;4.78;;;25.40;99.90;;;;;;5012426;28;20026;-45
2021/08/21 06:55:56;;;;;;;5.57;5.00;;;26.60;99.90;;;;;;5012167;28;20543;-44
2021/08/21 06:58:22;;;;;;;5.25;4.60;;;27.70;99.00;;;;;;5012594;28;20025;-41
2021/08/21 07:00:49;;;;;;;4.88;4.47;;;28.80;95.20;;;;;;5012320;28;20040;-43
2021/08/21 07:03:14;;;;;;;5.40;4.18;;;29.60;91.80;;;;;;5012462;28;20033;-41
2021/08/21 07:05:40;;;;;;;4.65;4.05;;;29.20;92.00;;;;;;5011984;28;20456;-43
2021/08/21 07:08:06;;;;;;;7.60;4.70;;;28.20;91.70;;;;;;5012121;28;20022;-41
2021/08/21 07:10:31;;;;;;;5.68;3.83;;;27.70;92.70;;;;;;5011334;28;20029;-42
2021/08/21 07:12:57;;;;;;;4.57;4.07;;;28.30;90.70;;;;;;5013251;28;20148;-43
2021/08/21 07:15:22;;;;;;;5.78;4.40;;;29.20;85.50;;;;;;5013478;28;20068;-41
2021/08/21 07:17:48;;;;;;;5.10;4.57;;;30.20;81.70;;;;;;5013436;28;20061;-42
2021/08/21 07:20:13;;;;;;;4.75;4.22;;;30.60;70.10;;;;;;5013460;28;20100;-41
2021/08/21 07:22:39;;;;;;;4.72;4.32;;;30.50;73.90;;;;;;5013423;28;20022;-41
2021/08/21 07:25:05;;;;;;;4.28;3.88;;;30.30;74.30;;;;;;5012478;28;20026;-41
2021/08/21 07:27:30;;;;;;;3.65;3.35;;;30.60;72.30;;;;;;5013423;28;20097;-41
2021/08/21 07:29:56;;;;;;;4.72;3.50;;;31.20;67.60;;;;;;5003430;28;20145;-41
2021/08/21 07:32:21;;;;;;;4.65;3.22;;;31.80;65.70;;;;;;5013381;28;20022;-41
2021/08/21 07:34:47;;;;;;;3.47;3.17;;;32.50;62.90;;;;;;5013182;28;20113;-41
2021/08/21 07:37:12;;;;;;;3.83;3.53;;;33.10;58.70;;;;;;5013228;28;20022;-42
2021/08/21 07:39:38;;;;;;;4.47;4.07;;;33.40;53.10;;;;;;5012187;28;20106;-42
2021/08/21 07:42:03;;;;;;;3.67;3.38;;;33.80;51.60;;;;;;5012121;28;20057;-42
2021/08/21 07:44:29;;;;;;;3.38;3.05;;;33.90;49.60;;;;;;5013071;28;20030;-41
2021/08/21 07:46:54;;;;;;;3.50;3.20;;;34.00;49.30;;;;;;5012904;28;20496;-41
2021/08/21 07:49:20;;;;;;;4.53;3.38;;;34.10;47.90;;;;;;5013025;28;20030;-43
2021/08/21 07:51:45;;;;;;;4.07;3.00;;;34.20;44.80;;;;;;5011176;28;20068;-42
2021/08/21 07:54:11;;;;;;;3.08;2.78;;;33.20;45.20;;;;;;4990645;28;20034;-42
2021/08/21 07:56:36;;;;;;;3.00;2.67;;;32.20;47.30;;;;;;4991889;28;20031;-41
2021/08/21 07:59:02;;;;;;;7.38;4.30;;;31.40;49.40;;;;;;4991445;28;20117;-42
2021/08/21 08:01:27;;;;;;;4.22;3.35;;;30.60;51.00;;;;;;4991650;28;20030;-41
2021/08/21 08:03:53;;;;;;;2.95;2.50;;;30.40;51.10;;;;;;4991353;28;20077;-41
2021/08/21 08:06:18;;;;;;;2.50;2.30;;;30.50;50.50;;;;;;4991820;28;20050;-41
2021/08/21 08:08:44;;;;;;;3.00;2.35;;;30.60;49.90;;;;;;4990736;28;20033;-43
2021/08/21 08:11:09;;;;;;;3.08;2.47;;;30.90;48.70;;;;;;4991367;28;20034;-41
2021/08/21 08:13:35;;;;;;;3.13;2.53;;;30.60;47.70;;;;;;5006827;28;20108;-43
2021/08/21 08:16:00;;;;;;;2.80;2.60;;;30.10;48.50;;;;;;4991497;28;20027;-41
2021/08/21 08:18:26;;;;;;;2.45;2.22;;;30.30;48.70;;;;;;4991654;28;20018;-41
2021/08/21 08:20:51;;;;;;;2.38;2.17;;;30.70;46.60;;;;;;4991349;28;20033;-41
2021/08/21 08:23:17;;;;;;;3.03;2.83;;;31.80;44.80;;;;;;4991536;28;20418;-41
2021/08/21 08:25:43;;;;;;;2.85;2.55;;;32.70;43.00;;;;;;4990609;28;20385;-44
2021/08/21 08:28:08;;;;;;;2.40;2.20;;;32.20;42.60;;;;;;4991489;28;20034;-42
2021/08/21 08:30:34;;;;;;;2.95;2.67;;;31.30;44.00;;;;;;4991352;28;20070;-43
2021/08/21 08:32:59;;;;;;;4.03;2.60;;;30.30;45.70;;;;;;4991473;28;20034;-41
2021/08/21 08:35:25;;;;;;;3.25;2.83;;;29.50;46.00;;;;;;4991554;28;20101;-42
2021/08/21 08:37:50;;;;;;;3.47;2.53;;;28.80;47.20;;;;;;4991431;28;20030;-41
2021/08/21 08:40:16;;;;;;;3.63;2.80;;;28.20;48.80;;;;;;4990570;28;20568;-43
2021/08/21 08:42:43;;;;;;;5.53;2.83;;;27.60;50.20;;;;;;4991469;28;20030;-41
2021/08/21 08:45:12;;;;;;;4.40;2.67;;;27.20;51.20;;;;;;4990989;28;20034;-41
2021/08/21 08:47:38;;;;;;;4.22;2.72;;;28.10;49.90;;;;;;5024381;28;20021;-41
2021/08/21 08:50:06;;;;;;;4.47;2.70;;;29.70;47.10;;;;;;5030335;28;20591;-43
2021/08/21 08:52:34;;;;;;;2.58;2.38;;;30.60;44.70;;;;;;5030550;28;20029;-41
2021/08/21 08:55:04;;;;;;;3.30;2.78;;;30.20;44.50;;;;;;5029489;28;20017;-43
2021/08/21 08:57:44;;;;;;;2.92;2.63;;;29.50;45.00;;;;;;5030237;28;20029;-43
2021/08/21 09:00:11;;;;;;;2.83;2.63;;;29.90;42.90;;;;;;5030139;28;20120;-42
2021/08/21 09:02:42;;;;;;;2.30;2.10;;;29.40;44.90;;;;;;5030257;28;20029;-41
2021/08/21 09:05:12;;;;;;;3.17;2.67;;;28.80;46.00;;;;;;5029992;28;20420;-40
2021/08/21 09:07:40;;;;;;;3.10;2.83;;;28.20;47.70;;;;;;5030308;28;20315;-41
2021/08/21 09:10:21;;;;;;;4.53;2.90;;;27.80;48.80;;;;;;5029176;28;20072;-43
2021/08/21 09:12:48;;;;;;;4.45;3.40;;;28.20;48.30;;;;;;5033233;28;20021;-41
2021/08/21 09:15:23;;;;;;;3.70;3.25;;;29.50;46.00;;;;;;5033791;28;20112;-45
2021/08/21 09:17:59;;;;;;;3.42;2.97;;;30.20;43.00;;;;;;5033711;28;20499;-46
2021/08/21 09:20:24;;;;;;;3.00;2.70;;;30.80;40.80;;;;;;5033881;28;20064;-45
2021/08/21 09:22:50;;;;;;;2.58;2.38;;;31.70;40.30;;;;;;5033365;28;20069;-44
2021/08/21 09:25:30;;;;;;;4.45;3.30;;;32.20;39.00;;;;;;5032783;28;20116;-42
2021/08/21 09:27:55;;;;;;;6.03;3.30;;;31.70;35.10;;;;;;5033626;28;20021;-40
2021/08/21 09:30:26;;;;;;;3.03;2.50;;;30.90;38.10;;;;;;5033755;28;20496;-41
2021/08/21 09:33:00;;;;;;;2.17;1.98;;;30.30;40.60;;;;;;5033568;28;20486;-44
2021/08/21 09:35:33;;;;;;;3.35;2.70;;;30.50;40.30;;;;;;5033525;28;20038;-41
2021/08/21 09:37:59;;;;;;;4.10;2.38;;;31.00;39.80;;;;;;5033437;28;20370;-42
2021/08/21 09:40:38;;;;;;;3.40;2.42;;;31.30;38.90;;;;;;5032589;28;20034;-41
2021/08/21 09:43:06;;;;;;;3.63;2.63;;;30.90;38.60;;;;;;5033397;28;20025;-42
2021/08/21 09:45:39;;;;;;;3.30;2.25;;;30.40;39.00;;;;;;5033164;28;20374;-41
2021/08/21 09:48:06;;;;;;;3.47;2.53;;;29.90;39.60;;;;;;5033212;28;20489;-42
2021/08/21 09:50:42;;;;;;;3.08;2.55;;;29.50;40.80;;;;;;5033288;28;20026;-43
2021/08/21 09:53:10;;;;;;;2.38;2.17;;;29.00;41.70;;;;;;5033226;28;20392;-41
2021/08/21 09:55:38;;;;;;;2.72;2.45;;;28.70;42.70;;;;;;5032452;28;20029;-41
2021/08/21 09:58:08;;;;;;;3.63;2.25;;;28.90;42.20;;;;;;5033131;28;20385;-42
2021/08/21 10:00:36;;;;;;;2.80;2.28;;;28.70;42.50;;;;;;5033083;28;20029;-41
2021/08/21 10:03:05;;;;;;;2.85;2.17;;;28.60;42.70;;;;;;5032942;28;20028;-43
2021/08/21 10:05:32;;;;;;;2.38;2.17;;;28.30;43.30;;;;;;5032978;28;20025;-42
2021/08/21 10:08:03;;;;;;;2.88;2.38;;;28.00;44.00;;;;;;5033121;28;20053;-42
2021/08/21 10:10:36;;;;;;;3.35;2.33;;;27.70;45.00;;;;;;5032112;28;20468;-41
2021/08/21 10:13:24;;;;;;;4.15;2.75;;;27.60;46.00;;;;;;5030982;28;20686;-41
2021/08/21 10:15:51;;;;;;;2.65;2.45;;;27.70;46.30;;;;;;5032665;28;20079;-41
2021/08/21 10:18:19;;;;;;;3.20;2.88;;;27.90;46.10;;;;;;5032571;28;20018;-41
2021/08/21 10:20:44;;;;;;;3.50;2.78;;;27.90;45.40;;;;;;5032690;28;20037;-41
2021/08/21 10:23:16;;;;;;;3.45;2.97;;;27.70;46.40;;;;;;5032259;28;20030;-43
2021/08/21 10:26:00;;;;;;;3.35;2.75;;;27.60;46.60;;;;;;5031648;28;20025;-44
2021/08/21 10:28:31;;;;;;;3.30;2.65;;;27.60;47.40;;;;;;5012780;28;20033;-41
2021/08/21 10:30:57;;;;;;;2.90;2.58;;;27.60;46.50;;;;;;5012714;28;20022;-41
2021/08/21 10:33:22;;;;;;;2.95;2.28;;;27.60;46.60;;;;;;5012602;28;20041;-43
2021/08/21 10:35:56;;;;;;;2.28;2.05;;;27.70;46.50;;;;;;5012496;28;20048;-41
2021/08/21 10:38:30;;;;;;;4.35;2.42;;;27.70;47.10;;;;;;5012451;28;20548;-41
2021/08/21 10:41:11;;;;;;;2.95;2.63;;;27.40;47.10;;;;;;5012542;28;20493;-44
2021/08/21 10:43:46;;;;;;;4.35;2.00;;;26.90;49.90;;;;;;5012322;28;20142;-41
2021/08/21 10:46:33;;;;;;;3.00;2.22;;;26.70;50.80;;;;;;5011934;28;20033;-43
2021/08/21 10:49:06;;;;;;;3.13;2.30;;;26.70;51.30;;;;;;5012267;28;20056;-41
2021/08/21 10:51:41;;;;;;;2.20;2.00;;;26.60;50.30;;;;;;5012307;28;20109;-41
2021/08/21 10:54:45;;;;;;;2.90;2.28;;;26.40;50.50;;;;;;5011474;28;20026;-41
2021/08/21 10:57:29;;;;;;;3.38;2.50;;;26.20;53.00;;;;;;5012090;28;20476;-41
2021/08/21 10:59:55;;;;;;;2.78;2.38;;;26.20;51.70;;;;;;5012357;28;20092;-41
2021/08/21 11:02:20;;;;;;;2.58;2.17;;;26.40;50.50;;;;;;5012253;28;20421;-41
2021/08/21 11:04:46;;;;;;;2.72;2.33;;;26.60;50.00;;;;;;5011832;28;20049;-45
2021/08/21 11:07:41;;;;;;;2.67;2.47;;;26.80;49.60;;;;;;4996846;28;20026;-42
2021/08/21 11:10:23;;;;;;;3.72;2.42;;;26.70;49.80;;;;;;4992519;28;20026;-41
2021/08/21 11:12:53;;;;;;;2.80;1.90;;;26.40;50.80;;;;;;4994108;28;20077;-41
2021/08/21 11:15:25;;;;;;;3.40;2.30;;;26.20;51.50;;;;;;4993716;28;20038;-43
2021/08/21 11:17:51;;;;;;;3.80;2.38;;;26.20;51.80;;;;;;4994025;28;20030;-41
2021/08/21 11:20:34;;;;;;;2.17;1.95;;;26.40;51.30;;;;;;4994054;28;20065;-41
2021/08/21 11:23:08;;;;;;;3.25;2.10;;;26.70;51.20;;;;;;4993835;28;20057;-44
2021/08/21 11:25:42;;;;;;;3.08;2.20;;;26.80;50.20;;;;;;4992886;28;20125;-43
2021/08/21 11:28:15;;;;;;;1.98;1.60;;;26.80;49.50;;;;;;4993645;28;20097;-43
2021/08/21 11:30:41;;;;;;;3.55;2.38;;;26.80;50.20;;;;;;4993865;28;20267;-41
2021/08/21 11:33:06;;;;;;;2.55;2.10;;;26.80;50.40;;;;;;4993556;28;20079;-43
2021/08/21 11:35:47;;;;;;;3.45;2.40;;;26.80;50.40;;;;;;4993325;28;20120;-42
2021/08/21 11:38:27;;;;;;;3.22;1.77;;;26.70;50.20;;;;;;4993318;28;20084;-40
2021/08/21 11:40:56;;;;;;;3.30;2.08;;;26.60;50.20;;;;;;4993449;28;20077;-42
2021/08/21 11:43:28;;;;;;;2.20;1.98;;;26.50;50.90;;;;;;4993522;28;20077;-43
2021/08/21 11:45:54;;;;;;;3.80;2.13;;;26.50;51.40;;;;;;4993522;28;20037;-43
2021/08/21 11:48:26;;;;;;;2.17;1.98;;;26.30;51.70;;;;;;4993448;28;20114;-41
2021/08/21 11:50:51;;;;;;;2.28;1.90;;;26.00;52.30;;;;;;4993349;28;20057;-40
2021/08/21 11:53:21;;;;;;;2.63;1.98;;;25.80;52.70;;;;;;4993378;28;20386;-42
2021/08/21 11:55:47;;;;;;;3.42;2.15;;;25.50;53.50;;;;;;4992717;28;20023;-41
2021/08/21 11:58:13;;;;;;;3.63;2.35;;;25.40;53.70;;;;;;4993422;28;20437;-40
2021/08/21 12:00:41;;;;;;;2.67;1.90;;;25.40;53.80;;;;;;4993404;28;20034;-44
2021/08/21 12:03:11;;;;;;;2.35;1.95;;;25.50;53.60;;;;;;4993214;28;20389;-42
2021/08/21 12:05:44;;;;;;;2.35;1.88;;;25.60;53.50;;;;;;4993134;28;20125;-41
2021/08/21 12:08:23;;;;;;;2.35;2.00;;;25.70;53.70;;;;;;4993251;28;20036;-44
2021/08/21 12:11:03;;;;;;;2.58;1.70;;;25.90;51.40;;;;;;4992854;28;20022;-41
2021/08/21 12:13:37;;;;;;;2.33;1.80;;;25.80;52.60;;;;;;4993290;28;20037;-40
2021/08/21 12:16:12;;;;;;;2.45;2.13;;;25.60;51.70;;;;;;4993210;28;20097;-41
2021/08/21 12:18:42;;;;;;;2.13;1.85;;;25.50;51.70;;;;;;4993240;28;20438;-41
2021/08/21 12:21:19;;;;;;;2.75;1.83;;;25.50;52.50;;;;;;4993139;28;20029;-43
2021/08/21 12:23:46;;;;;;;2.13;1.52;;;25.50;52.60;;;;;;4992266;28;20896;-41
2021/08/21 12:26:12;;;;;;;1.77;1.60;;;25.50;52.90;;;;;;4993039;28;20061;-42
2021/08/21 12:28:43;;;;;;;2.67;1.80;;;25.50;52.70;;;;;;4993017;28;20057;-42
2021/08/21 12:31:13;;;;;;;1.88;1.77;;;25.50;52.60;;;;;;4993067;28;20561;-41
2021/08/21 12:33:43;;;;;;;1.88;1.70;;;25.50;53.40;;;;;;4992866;28;20493;-41
2021/08/21 12:36:19;;;;;;;2.20;2.00;;;25.50;53.00;;;;;;5009240;28;20033;-43
2021/08/21 12:39:10;;;;;;;2.92;2.10;;;25.30;52.30;;;;;;5031058;28;20029;-40
2021/08/21 12:41:55;;;;;;;2.25;1.55;;;25.20;53.60;;;;;;5032081;28;20125;-41
2021/08/21 12:44:33;;;;;;;2.80;1.70;;;25.20;53.80;;;;;;5024855;28;20057;-41
2021/08/21 12:47:00;;;;;;;2.25;1.70;;;25.30;53.40;;;;;;5033956;28;20076;-41
2021/08/21 12:49:37;;;;;;;1.83;1.50;;;25.40;53.30;;;;;;5035614;28;20021;-46